Time;durP1;ratioP1;P1;durP2;ratioP2;P2;SDS_P1;SDS_P2;PMS_P1;PMS_P2;Temp;Humidity;BMP_temperature;BMP_pressure;BME280_temperature;BME280_humidity;BME280_pressure;Samples;Min_cycle;Max_cycle;Signal;HPM_P1;HPM_P2
2022/04/07 00:00:03;;;;;;;;;;;13.50;99.90;;;;;;6183685;23;19912;-70
2022/04/07 00:02:29;;;;;;;;;;;13.50;99.90;;;;;;6184160;23;19904;-69
2022/04/07 00:04:55;;;;;;;;;;;13.40;99.90;;;;;;6184251;23;19904;-69
2022/04/07 00:07:21;;;;;;;;;;;13.40;99.90;;;;;;6183525;23;19916;-69
2022/04/07 00:09:47;;;;;;;;;;;13.40;99.90;;;;;;6207008;23;19937;-69
2022/04/07 00:12:13;;;;;;;;;;;13.40;99.90;;;;;;6243849;23;20417;-69
2022/04/07 00:14:38;;;;;;;;;;;13.40;99.90;;;;;;6243879;23;19956;-69
2022/04/07 00:17:04;;;;;;;;;;;13.40;99.90;;;;;;6244147;23;20300;-66
2022/04/07 00:19:30;;;;;;;;;;;13.40;99.90;;;;;;6243196;23;19904;-68
2022/04/07 00:21:57;;;;;;;;;;;13.40;99.90;;;;;;6243700;23;19903;-69
2022/04/07 00:24:25;;;;;;;;;;;13.30;99.90;;;;;;6242897;23;20309;-68
2022/04/07 00:26:51;;;;;;;;;;;13.30;99.90;;;;;;6216924;23;20328;-69
2022/04/07 00:29:17;;;;;;;;;;;13.30;99.90;;;;;;6243806;23;20237;-68
2022/04/07 00:31:43;;;;;;;;;;;13.30;99.90;;;;;;6243669;23;20313;-70
2022/04/07 00:34:10;;;;;;;;;;;13.30;99.90;;;;;;6243534;23;19970;-69
2022/04/07 00:36:36;;;;;;;;;;;13.30;99.90;;;;;;6244317;23;20205;-68
2022/04/07 00:39:02;;;;;;;;;;;13.40;99.90;;;;;;6243773;23;19907;-68
2022/04/07 00:41:28;;;;;;;;;;;13.50;99.90;;;;;;6243746;23;19904;-69
2022/04/07 00:43:54;;;;;;;;;;;13.40;99.90;;;;;;6244041;23;20096;-69
2022/04/07 00:46:20;;;;;;;;;;;13.40;99.90;;;;;;6243849;23;19912;-69
2022/04/07 00:48:46;;;;;;;;;;;13.40;99.90;;;;;;6243757;23;19908;-69
2022/04/07 00:51:12;;;;;;;;;;;13.50;99.90;;;;;;6243792;23;19904;-69
2022/04/07 00:53:38;;;;;;;;;;;13.50;99.90;;;;;;6243642;23;20222;-68
2022/04/07 00:56:06;;;;;;;;;;;13.50;99.90;;;;;;6244098;23;20273;-68
2022/04/07 00:58:32;;;;;;;;;;;13.50;99.90;;;;;;6243897;23;19907;-67
2022/04/07 01:00:58;;;;;;;;;;;13.50;99.90;;;;;;6244067;23;19904;-70
2022/04/07 01:03:24;;;;;;;;;;;13.50;99.90;;;;;;6243799;23;19957;-70
2022/04/07 01:05:51;;;;;;;;;;;13.60;99.90;;;;;;6243549;23;19908;-67
2022/04/07 01:08:17;;;;;;;;;;;13.70;99.90;;;;;;6243547;23;20007;-69
2022/04/07 01:10:45;;;;;;;;;;;13.70;99.90;;;;;;6244092;23;19920;-68
2022/04/07 01:13:11;;;;;;;;;;;13.70;99.90;;;;;;6243398;23;19918;-67
2022/04/07 01:15:37;;;;;;;;;;;13.70;99.90;;;;;;6243504;23;19908;-69
2022/04/07 01:18:03;;;;;;;;;;;13.70;99.90;;;;;;6244775;23;19903;-70
2022/04/07 01:20:29;;;;;;;;;;;13.70;99.90;;;;;;6245639;23;20273;-69
2022/04/07 01:22:56;;;;;;;;;;;13.80;99.90;;;;;;6245889;23;19910;-68
2022/04/07 01:25:23;;;;;;;;;;;13.80;99.90;;;;;;6218280;23;19938;-68
2022/04/07 01:27:49;;;;;;;;;;;13.70;99.90;;;;;;6245575;23;19903;-69
2022/04/07 01:30:15;;;;;;;;;;;13.70;99.90;;;;;;6245714;23;20090;-69
2022/04/07 01:32:49;;;;;;;;;;;13.70;99.90;;;;;;6218552;23;19949;-68
2022/04/07 01:35:15;;;;;;;;;;;13.70;99.90;;;;;;6218309;23;20266;-68
2022/04/07 01:37:43;;;;;;;;;;;13.70;99.90;;;;;;6245424;23;19907;-68
2022/04/07 01:40:09;;;;;;;;;;;13.70;99.90;;;;;;6245422;23;20232;-69
2022/04/07 01:42:36;;;;;;;;;;;13.70;99.90;;;;;;6245183;23;19907;-69
2022/04/07 01:45:04;;;;;;;;;;;13.70;99.90;;;;;;6245102;23;19904;-69
2022/04/07 01:47:31;;;;;;;;;;;13.70;99.90;;;;;;6245266;23;19920;-69
2022/04/07 01:50:07;;;;;;;;;;;13.70;99.90;;;;;;6245239;23;19910;-69
2022/04/07 01:52:34;;;;;;;;;;;13.60;99.90;;;;;;6245493;23;19953;-68
2022/04/07 01:55:00;;;;;;;;;;;13.60;99.90;;;;;;6245064;23;20348;-69
2022/04/07 01:57:27;;;;;;;;;;;13.60;99.90;;;;;;6245576;23;19903;-69
2022/04/07 01:59:53;;;;;;;;;;;13.60;99.90;;;;;;6245857;23;19903;-69
2022/04/07 02:02:19;;;;;;;;;;;13.60;99.90;;;;;;6245183;23;19914;-67
2022/04/07 02:04:52;;;;;;;;;;;13.50;99.90;;;;;;6245100;23;19911;-69
2022/04/07 02:07:18;;;;;;;;;;;13.40;99.90;;;;;;6245170;23;20364;-69
2022/04/07 02:09:44;;;;;;;;;;;13.40;99.90;;;;;;6217919;23;19962;-69
2022/04/07 02:12:10;;;;;;;;;;;13.40;99.90;;;;;;6245466;23;19950;-69
2022/04/07 02:14:35;;;;;;;;;;;13.40;99.90;;;;;;6244963;23;19908;-69
2022/04/07 02:17:02;;;;;;;;;;;13.30;99.90;;;;;;6245123;23;19986;-68
2022/04/07 02:19:28;;;;;;;;;;;13.30;99.90;;;;;;6244524;23;19904;-67
2022/04/07 02:21:53;;;;;;;;;;;13.30;99.90;;;;;;6245280;23;19936;-68
2022/04/07 02:24:19;;;;;;;;;;;13.30;99.90;;;;;;6244929;23;20034;-69
2022/04/07 02:26:45;;;;;;;;;;;13.30;99.90;;;;;;6244983;23;20269;-68
2022/04/07 02:29:11;;;;;;;;;;;13.30;99.90;;;;;;6244409;23;19904;-68
2022/04/07 02:31:37;;;;;;;;;;;13.30;99.90;;;;;;6245140;23;19908;-69
2022/04/07 02:34:02;;;;;;;;;;;13.20;99.90;;;;;;6217711;23;19904;-68
2022/04/07 02:36:28;;;;;;;;;;;13.20;99.90;;;;;;6245356;23;19903;-68
2022/04/07 02:38:54;;;;;;;;;;;13.20;99.90;;;;;;6245074;23;20282;-69
2022/04/07 02:41:20;;;;;;;;;;;13.20;99.90;;;;;;6244964;23;19904;-68
2022/04/07 02:43:48;;;;;;;;;;;13.20;99.90;;;;;;6245344;23;20340;-68
2022/04/07 02:46:14;;;;;;;;;;;13.20;99.90;;;;;;6244583;23;19946;-69
2022/04/07 02:48:40;;;;;;;;;;;13.20;99.90;;;;;;6245254;23;20313;-68
2022/04/07 02:51:06;;;;;;;;;;;13.20;99.90;;;;;;6244712;23;19949;-69
2022/04/07 02:53:32;;;;;;;;;;;13.20;99.90;;;;;;6245102;23;20325;-67
2022/04/07 02:55:58;;;;;;;;;;;13.20;99.90;;;;;;6245070;23;19990;-67
2022/04/07 02:58:23;;;;;;;;;;;13.10;99.90;;;;;;6245636;23;19910;-67
2022/04/07 03:00:49;;;;;;;;;;;13.10;99.90;;;;;;6245284;23;19911;-71
2022/04/07 03:03:15;;;;;;;;;;;13.10;99.90;;;;;;6245819;23;19981;-68
2022/04/07 03:05:41;;;;;;;;;;;13.10;99.90;;;;;;6218345;23;19978;-69
2022/04/07 03:08:07;;;;;;;;;;;13.10;99.90;;;;;;6245518;23;19915;-68
2022/04/07 03:10:33;;;;;;;;;;;13.10;99.90;;;;;;6245302;23;20328;-68
2022/04/07 03:12:58;;;;;;;;;;;13.00;99.90;;;;;;6218375;23;19903;-69
2022/04/07 03:15:24;;;;;;;;;;;13.00;99.90;;;;;;6245399;23;19903;-69
2022/04/07 03:17:50;;;;;;;;;;;12.90;99.90;;;;;;6245552;23;19926;-69
2022/04/07 03:20:16;;;;;;;;;;;12.90;99.90;;;;;;6245768;23;19910;-69
2022/04/07 03:22:43;;;;;;;;;;;12.90;99.90;;;;;;6245729;23;19961;-67
2022/04/07 03:25:09;;;;;;;;;;;12.90;99.90;;;;;;6247572;23;20305;-68
2022/04/07 03:27:34;;;;;;;;;;;12.90;99.90;;;;;;6246492;23;19915;-68
2022/04/07 03:30:00;;;;;;;;;;;12.90;99.90;;;;;;6246687;23;19904;-68
2022/04/07 03:32:26;;;;;;;;;;;12.90;99.90;;;;;;6246685;23;19903;-69
2022/04/07 03:34:52;;;;;;;;;;;12.90;99.90;;;;;;6246419;23;19907;-68
2022/04/07 03:37:18;;;;;;;;;;;12.90;99.90;;;;;;6247034;23;19983;-68
2022/04/07 03:39:44;;;;;;;;;;;12.80;99.90;;;;;;6246486;23;19910;-68
2022/04/07 03:42:10;;;;;;;;;;;12.80;99.90;;;;;;6246388;23;19935;-68
2022/04/07 03:44:36;;;;;;;;;;;12.80;99.90;;;;;;6246915;23;20049;-68
2022/04/07 03:47:02;;;;;;;;;;;12.70;99.90;;;;;;6246908;23;19915;-67
2022/04/07 03:49:29;;;;;;;;;;;12.60;99.90;;;;;;6246227;23;19903;-67
2022/04/07 03:51:54;;;;;;;;;;;12.60;99.90;;;;;;6246127;23;19904;-68
2022/04/07 03:54:20;;;;;;;;;;;12.50;99.90;;;;;;6246127;23;19987;-68
2022/04/07 03:56:46;;;;;;;;;;;12.50;99.90;;;;;;6245843;23;19908;-68
2022/04/07 03:59:12;;;;;;;;;;;12.50;99.90;;;;;;6245878;23;19939;-67
2022/04/07 04:01:39;;;;;;;;;;;12.50;99.90;;;;;;6246450;23;19903;-67
2022/04/07 04:04:05;;;;;;;;;;;12.50;99.90;;;;;;6245673;23;19927;-68
2022/04/07 04:06:32;;;;;;;;;;;12.50;99.90;;;;;;6245630;23;19989;-68
2022/04/07 04:08:58;;;;;;;;;;;12.40;99.90;;;;;;6245839;23;20264;-69
2022/04/07 04:11:24;;;;;;;;;;;12.40;99.90;;;;;;6218830;23;19917;-67
2022/04/07 04:13:49;;;;;;;;;;;12.40;99.90;;;;;;6245715;23;19904;-67
2022/04/07 04:16:17;;;;;;;;;;;12.40;99.90;;;;;;6246331;23;20225;-67
2022/04/07 04:18:43;;;;;;;;;;;12.40;99.90;;;;;;6246578;23;19903;-68
2022/04/07 04:21:09;;;;;;;;;;;12.30;99.90;;;;;;6246243;23;19987;-66
2022/04/07 04:23:35;;;;;;;;;;;12.40;99.90;;;;;;6246120;23;20328;-68
2022/04/07 04:26:01;;;;;;;;;;;12.40;99.90;;;;;;6246450;23;19950;-68
2022/04/07 04:28:27;;;;;;;;;;;12.50;99.90;;;;;;6246116;23;19904;-68
2022/04/07 04:30:53;;;;;;;;;;;12.50;99.90;;;;;;6246166;23;19957;-68
2022/04/07 04:33:19;;;;;;;;;;;12.50;99.90;;;;;;6246759;23;19965;-67
2022/04/07 04:35:44;;;;;;;;;;;12.50;99.90;;;;;;6246204;23;20227;-68
2022/04/07 04:38:10;;;;;;;;;;;12.40;99.90;;;;;;6246479;23;20208;-68
2022/04/07 04:40:36;;;;;;;;;;;12.40;99.90;;;;;;6246424;23;19927;-67
2022/04/07 04:43:02;;;;;;;;;;;12.40;99.90;;;;;;6245620;23;19939;-66
2022/04/07 04:45:28;;;;;;;;;;;12.40;99.90;;;;;;6245775;23;19986;-68
2022/04/07 04:47:54;;;;;;;;;;;12.30;99.90;;;;;;6246020;23;19915;-69
2022/04/07 04:50:19;;;;;;;;;;;12.30;99.90;;;;;;6246645;23;20301;-68
2022/04/07 04:52:45;;;;;;;;;;;12.30;99.90;;;;;;6246745;23;20205;-68
2022/04/07 04:55:12;;;;;;;;;;;12.30;99.90;;;;;;6248473;23;20332;-69
2022/04/07 04:57:37;;;;;;;;;;;12.30;99.90;;;;;;6249184;23;19904;-69
2022/04/07 05:00:04;;;;;;;;;;;12.30;99.90;;;;;;6248149;23;19911;-68
2022/04/07 05:02:30;;;;;;;;;;;12.30;99.90;;;;;;6247910;23;19904;-68
2022/04/07 05:04:56;;;;;;;;;;;12.40;99.90;;;;;;6220977;23;19950;-68
2022/04/07 05:07:22;;;;;;;;;;;12.30;99.90;;;;;;6247789;23;19915;-67
2022/04/07 05:09:48;;;;;;;;;;;12.40;99.90;;;;;;6247654;23;19915;-69
2022/04/07 05:12:14;;;;;;;;;;;12.40;99.90;;;;;;6247583;23;19927;-69
2022/04/07 05:14:40;;;;;;;;;;;12.40;99.90;;;;;;6247526;23;20282;-66
2022/04/07 05:17:07;;;;;;;;;;;12.50;99.90;;;;;;6248470;23;20369;-67
2022/04/07 05:19:32;;;;;;;;;;;12.50;99.90;;;;;;6247684;23;20033;-66
2022/04/07 05:21:58;;;;;;;;;;;12.50;99.90;;;;;;6221273;23;20324;-68
2022/04/07 05:24:24;;;;;;;;;;;12.50;99.90;;;;;;6248129;23;19904;-68
2022/04/07 05:26:50;;;;;;;;;;;12.50;99.90;;;;;;6247921;23;20335;-68
2022/04/07 05:29:16;;;;;;;;;;;12.50;99.90;;;;;;6247535;23;19904;-69
2022/04/07 05:31:41;;;;;;;;;;;12.60;99.90;;;;;;6247384;23;20252;-69
2022/04/07 05:34:08;;;;;;;;;;;12.60;99.90;;;;;;6247525;23;19994;-68
2022/04/07 05:36:34;;;;;;;;;;;12.60;99.90;;;;;;6247478;23;19989;-69
2022/04/07 05:38:59;;;;;;;;;;;12.60;99.90;;;;;;6220279;23;19903;-69
2022/04/07 05:41:25;;;;;;;;;;;12.60;99.90;;;;;;6247309;23;19974;-68
2022/04/07 05:43:51;;;;;;;;;;;12.60;99.90;;;;;;6220027;23;19904;-69
2022/04/07 05:46:17;;;;;;;;;;;12.60;99.90;;;;;;6219906;23;19912;-69
2022/04/07 05:48:43;;;;;;;;;;;12.60;99.90;;;;;;6246238;23;19904;-67
2022/04/07 05:51:08;;;;;;;;;;;12.70;99.90;;;;;;6246180;23;19903;-69
2022/04/07 05:53:34;;;;;;;;;;;12.90;99.90;;;;;;6218313;23;20204;-69
2022/04/07 05:56:00;;;;;;;;;;;13.20;99.90;;;;;;6245699;23;19903;-68
2022/04/07 05:58:26;;;;;;;;;;;13.40;99.90;;;;;;6246080;23;19911;-68
2022/04/07 06:00:52;;;;;;;;;;;13.60;99.90;;;;;;6245941;23;19908;-69
2022/04/07 06:03:18;;;;;;;;;;;13.80;99.90;;;;;;6246235;23;19910;-68
2022/04/07 06:05:44;;;;;;;;;;;14.00;99.90;;;;;;6245440;23;19973;-68
2022/04/07 06:08:10;;;;;;;;;;;14.40;99.90;;;;;;6245420;23;19964;-69
2022/04/07 06:10:36;;;;;;;;;;;14.90;99.90;;;;;;6218057;23;19916;-69
2022/04/07 06:13:02;;;;;;;;;;;15.00;99.90;;;;;;6245749;23;20026;-69
2022/04/07 06:15:29;;;;;;;;;;;14.60;99.90;;;;;;6245983;23;20382;-76
2022/04/07 06:17:55;;;;;;;;;;;14.50;99.90;;;;;;6245922;23;20307;-71
2022/04/07 06:20:21;;;;;;;;;;;14.40;99.90;;;;;;6246427;23;19978;-70
2022/04/07 06:22:47;;;;;;;;;;;14.30;99.90;;;;;;6246520;23;20284;-67
2022/04/07 06:25:13;;;;;;;;;;;14.20;99.90;;;;;;6244709;23;19907;-69
2022/04/07 06:27:41;;;;;;;;;;;14.00;99.90;;;;;;6245757;23;19977;-68
2022/04/07 06:30:11;;;;;;;;;;;14.00;99.90;;;;;;6246162;23;19997;-69
2022/04/07 06:32:37;;;;;;;;;;;14.10;99.90;;;;;;6246085;23;19935;-70
2022/04/07 06:35:03;;;;;;;;;;;14.20;99.90;;;;;;6245429;23;19903;-68
2022/04/07 06:37:29;;;;;;;;;;;14.20;99.90;;;;;;6246023;23;19904;-69
2022/04/07 06:39:59;;;;;;;;;;;14.20;99.90;;;;;;6219101;23;19904;-67
2022/04/07 06:42:25;;;;;;;;;;;13.90;99.90;;;;;;6247436;23;19904;-68
2022/04/07 06:44:51;;;;;;;;;;;13.90;99.90;;;;;;6246277;23;19910;-65
2022/04/07 06:47:17;;;;;;;;;;;13.90;99.90;;;;;;6245182;23;19919;-68
2022/04/07 06:49:43;;;;;;;;;;;13.90;99.90;;;;;;6246420;23;20289;-67
2022/04/07 06:52:09;;;;;;;;;;;13.80;99.90;;;;;;6246310;23;19910;-68
2022/04/07 06:54:35;;;;;;;;;;;14.00;99.90;;;;;;6245571;23;19990;-67
2022/04/07 06:57:01;;;;;;;;;;;14.70;99.90;;;;;;6246245;23;19904;-67
2022/04/07 06:59:27;;;;;;;;;;;15.30;99.90;;;;;;6246067;23;19911;-67
2022/04/07 07:01:52;;;;;;;;;;;16.10;99.90;;;;;;6246284;23;20289;-66
2022/04/07 07:04:18;;;;;;;;;;;16.50;99.90;;;;;;6245671;23;19904;-67
2022/04/07 07:06:44;;;;;;;;;;;16.20;99.90;;;;;;6245786;23;19912;-68
2022/04/07 07:09:10;;;;;;;;;;;16.40;99.90;;;;;;6246677;23;19987;-68
2022/04/07 07:11:35;;;;;;;;;;;17.40;99.90;;;;;;6246466;23;19930;-67
2022/04/07 07:14:01;;;;;;;;;;;18.20;99.90;;;;;;6245675;23;19911;-66
2022/04/07 07:16:28;;;;;;;;;;;18.60;99.90;;;;;;6245319;23;19904;-68
2022/04/07 07:18:54;;;;;;;;;;;19.20;99.90;;;;;;6245533;23;19910;-67
2022/04/07 07:21:20;;;;;;;;;;;20.80;99.90;;;;;;6246042;23;19911;-68
2022/04/07 07:23:46;;;;;;;;;;;22.20;99.90;;;;;;6245618;23;19935;-65
2022/04/07 07:26:13;;;;;;;;;;;22.50;99.90;;;;;;6245497;23;19912;-67
2022/04/07 07:28:38;;;;;;;;;;;22.00;99.10;;;;;;6245638;23;19911;-69
2022/04/07 07:31:05;;;;;;;;;;;21.40;99.90;;;;;;6245760;23;20341;-67
2022/04/07 07:33:31;;;;;;;;;;;21.00;99.90;;;;;;6245647;23;19998;-67
2022/04/07 07:35:56;;;;;;;;;;;21.30;99.90;;;;;;6218790;23;19990;-67
2022/04/07 07:38:22;;;;;;;;;;;21.30;99.90;;;;;;6245524;23;20346;-68
2022/04/07 07:40:48;;;;;;;;;;;20.70;99.90;;;;;;6245849;23;19914;-68
2022/04/07 07:43:14;;;;;;;;;;;20.00;99.90;;;;;;6245763;23;19903;-67
2022/04/07 07:45:40;;;;;;;;;;;19.60;99.90;;;;;;6218345;23;20017;-68
2022/04/07 07:48:06;;;;;;;;;;;19.30;99.90;;;;;;6245001;23;19910;-67
2022/04/07 07:50:32;;;;;;;;;;;19.30;99.90;;;;;;6244531;23;19903;-68
2022/04/07 07:52:58;;;;;;;;;;;19.50;99.90;;;;;;6244364;23;19911;-67
2022/04/07 07:55:25;;;;;;;;;;;18.50;99.90;;;;;;6244178;23;19910;-67
2022/04/07 07:57:50;;;;;;;;;;;18.70;99.90;;;;;;6244358;23;19903;-67
2022/04/07 08:00:17;;;;;;;;;;;18.80;99.90;;;;;;6244756;23;20003;-68
2022/04/07 08:02:43;;;;;;;;;;;18.70;99.90;;;;;;6244215;23;19954;-67
2022/04/07 08:05:09;;;;;;;;;;;18.80;99.90;;;;;;6244268;23;19904;-66
2022/04/07 08:07:39;;;;;;;;;;;18.90;99.90;;;;;;6217053;23;20011;-68
2022/04/07 08:10:05;;;;;;;;;;;18.70;99.90;;;;;;6217610;23;19920;-69
2022/04/07 08:12:31;;;;;;;;;;;18.60;99.90;;;;;;6244519;23;19926;-67
2022/04/07 08:14:57;;;;;;;;;;;19.00;99.90;;;;;;6244426;23;20321;-66
2022/04/07 08:17:23;;;;;;;;;;;19.10;99.90;;;;;;6244843;23;19935;-67
2022/04/07 08:19:49;;;;;;;;;;;19.00;99.90;;;;;;6218175;23;20293;-67
2022/04/07 08:22:15;;;;;;;;;;;19.00;99.90;;;;;;6245251;23;19938;-67
2022/04/07 08:24:40;;;;;;;;;;;18.60;99.90;;;;;;6245058;23;20332;-67
2022/04/07 08:27:06;;;;;;;;;;;18.70;99.90;;;;;;6244311;23;19911;-66
2022/04/07 08:29:33;;;;;;;;;;;18.90;99.90;;;;;;6245150;23;19915;-66
2022/04/07 08:31:59;;;;;;;;;;;19.10;99.90;;;;;;6218309;23;19911;-67
2022/04/07 08:34:25;;;;;;;;;;;19.00;99.90;;;;;;6245359;23;19904;-66
2022/04/07 08:36:51;;;;;;;;;;;19.00;99.90;;;;;;6245981;23;19974;-67
2022/04/07 08:39:17;;;;;;;;;;;19.20;99.90;;;;;;6245387;23;20292;-68
2022/04/07 08:41:45;;;;;;;;;;;19.30;99.90;;;;;;6245285;23;19908;-67
2022/04/07 08:44:11;;;;;;;;;;;19.20;99.90;;;;;;6218397;23;20236;-66
2022/04/07 08:46:37;;;;;;;;;;;19.30;99.90;;;;;;6245482;23;19912;-67
2022/04/07 08:49:04;;;;;;;;;;;19.40;99.90;;;;;;6217610;23;19914;-67
2022/04/07 08:51:31;;;;;;;;;;;19.50;99.90;;;;;;6243248;23;19910;-68
2022/04/07 08:53:57;;;;;;;;;;;19.70;99.90;;;;;;6216362;23;19983;-67
2022/04/07 08:56:23;;;;;;;;;;;19.70;99.90;;;;;;6244552;23;19908;-65
2022/04/07 08:58:50;;;;;;;;;;;19.60;99.90;;;;;;6244735;23;19910;-67
2022/04/07 09:01:16;;;;;;;;;;;19.70;99.90;;;;;;6217604;23;19908;-67
2022/04/07 09:03:45;;;;;;;;;;;19.70;99.90;;;;;;6244749;23;20347;-67
2022/04/07 09:06:11;;;;;;;;;;;19.90;99.90;;;;;;6244345;23;20162;-68
2022/04/07 09:08:38;;;;;;;;;;;19.90;99.90;;;;;;6217614;23;19969;-68
2022/04/07 09:11:05;;;;;;;;;;;19.30;99.90;;;;;;6244474;23;19950;-67
2022/04/07 09:13:34;;;;;;;;;;;19.10;99.90;;;;;;6244787;23;19910;-68
2022/04/07 09:16:00;;;;;;;;;;;19.20;99.90;;;;;;6217763;23;19986;-65
2022/04/07 09:18:26;;;;;;;;;;;19.20;99.90;;;;;;6217019;23;19943;-66
2022/04/07 09:20:51;;;;;;;;;;;19.60;99.90;;;;;;6244974;23;19904;-67
2022/04/07 09:23:17;;;;;;;;;;;19.80;99.90;;;;;;6244938;23;20034;-66
2022/04/07 09:25:44;;;;;;;;;;;19.80;99.90;;;;;;6244519;23;19994;-68
2022/04/07 09:28:13;;;;;;;;;;;20.00;99.90;;;;;;6245427;23;20236;-67
2022/04/07 09:30:41;;;;;;;;;;;20.10;99.90;;;;;;6245197;23;19911;-68
2022/04/07 09:33:19;;;;;;;;;;;19.80;99.90;;;;;;6245050;23;20208;-67
2022/04/07 09:35:58;;;;;;;;;;;19.90;99.90;;;;;;6244495;23;19903;-67
2022/04/07 09:38:25;;;;;;;;;;;19.90;99.90;;;;;;6243959;23;19903;-67
2022/04/07 09:40:51;;;;;;;;;;;19.70;99.90;;;;;;6246118;23;20214;-67
2022/04/07 09:43:17;;;;;;;;;;;19.60;99.90;;;;;;6247078;23;19903;-68
2022/04/07 09:45:46;;;;;;;;;;;19.00;99.90;;;;;;6246998;23;19911;-68
2022/04/07 09:48:18;;;;;;;;;;;17.90;99.90;;;;;;6246731;23;19942;-67
2022/04/07 09:51:00;;;;;;;;;;;17.60;99.90;;;;;;6247148;23;20309;-68
2022/04/07 09:53:29;;;;;;;;;;;18.10;99.90;;;;;;6246527;23;19903;-67
2022/04/07 09:55:55;;;;;;;;;;;18.70;99.90;;;;;;6246898;23;19904;-68
2022/04/07 09:58:21;;;;;;;;;;;18.60;99.90;;;;;;6246605;23;20269;-68
2022/04/07 10:00:47;;;;;;;;;;;18.50;99.90;;;;;;6246549;23;19911;-67
2022/04/07 10:03:13;;;;;;;;;;;18.50;99.90;;;;;;6246445;23;19907;-68
2022/04/07 10:05:39;;;;;;;;;;;18.60;99.90;;;;;;6246440;23;20063;-67
2022/04/07 10:08:06;;;;;;;;;;;18.50;99.90;;;;;;6245956;23;19995;-67
2022/04/07 10:10:32;;;;;;;;;;;18.70;99.90;;;;;;6245973;23;19943;-69
2022/04/07 10:12:59;;;;;;;;;;;19.30;99.90;;;;;;6246430;23;19904;-67
2022/04/07 10:15:25;;;;;;;;;;;19.40;99.90;;;;;;6246107;23;20070;-68
2022/04/07 10:17:51;;;;;;;;;;;19.60;99.90;;;;;;6245919;23;19922;-67
2022/04/07 10:20:19;;;;;;;;;;;19.50;99.90;;;;;;6245021;23;19904;-69
2022/04/07 10:22:49;;;;;;;;;;;19.50;99.90;;;;;;6246228;23;19938;-69
2022/04/07 10:25:17;;;;;;;;;;;19.40;99.90;;;;;;6246208;23;19978;-68
2022/04/07 10:27:53;;;;;;;;;;;19.20;99.90;;;;;;6245557;23;19912;-66
2022/04/07 10:30:19;;;;;;;;;;;19.20;99.90;;;;;;6246121;23;20224;-68
2022/04/07 10:32:47;;;;;;;;;;;19.20;99.90;;;;;;6245770;23;19973;-66
2022/04/07 10:35:28;;;;;;;;;;;19.00;99.90;;;;;;6245800;23;19994;-67
2022/04/07 10:37:54;;;;;;;;;;;18.60;99.90;;;;;;6245367;23;20290;-68
2022/04/07 10:40:40;;;;;;;;;;;18.60;99.90;;;;;;6246019;23;19904;-67
2022/04/07 10:43:07;;;;;;;;;;;18.60;99.90;;;;;;6218124;23;19903;-67
2022/04/07 10:45:33;;;;;;;;;;;18.90;99.90;;;;;;6218020;23;19910;-66
2022/04/07 10:48:18;;;;;;;;;;;19.10;99.90;;;;;;6246133;23;19904;-67
2022/04/07 10:50:48;;;;;;;;;;;18.80;99.90;;;;;;6245157;23;19911;-67
2022/04/07 10:53:19;;;;;;;;;;;19.10;99.90;;;;;;6245653;23;19911;-67
2022/04/07 10:55:55;;;;;;;;;;;19.20;99.90;;;;;;6245064;23;20206;-68
2022/04/07 10:58:36;;;;;;;;;;;19.20;99.90;;;;;;6246156;23;19935;-67
2022/04/07 11:01:03;;;;;;;;;;;19.40;99.90;;;;;;6244997;23;20320;-66
2022/04/07 11:03:28;;;;;;;;;;;19.30;99.90;;;;;;6243884;23;19907;-65
2022/04/07 11:05:58;;;;;;;;;;;19.10;98.70;;;;;;6244826;23;20280;-66
2022/04/07 11:08:24;;;;;;;;;;;18.80;98.30;;;;;;6245314;23;20010;-66
2022/04/07 11:10:52;;;;;;;;;;;18.40;98.50;;;;;;6245369;23;19916;-67
2022/04/07 11:13:19;;;;;;;;;;;18.10;98.60;;;;;;6245166;23;19903;-65
2022/04/07 11:15:48;;;;;;;;;;;18.50;98.40;;;;;;6244092;23;20003;-67
2022/04/07 11:18:14;;;;;;;;;;;18.60;97.10;;;;;;6245706;23;19912;-66
2022/04/07 11:20:59;;;;;;;;;;;18.90;96.80;;;;;;6245841;23;19950;-67
2022/04/07 11:23:44;;;;;;;;;;;19.20;95.60;;;;;;6245721;23;20054;-67
2022/04/07 11:26:19;;;;;;;;;;;19.30;93.60;;;;;;6245529;23;19915;-67
2022/04/07 11:29:04;;;;;;;;;;;19.10;92.10;;;;;;6245986;23;19934;-65
2022/04/07 11:31:39;;;;;;;;;;;19.10;91.70;;;;;;6245839;23;20340;-65
2022/04/07 11:34:25;;;;;;;;;;;18.90;91.60;;;;;;6246067;23;19910;-67
2022/04/07 11:36:51;;;;;;;;;;;19.00;92.40;;;;;;6245768;23;19927;-66
2022/04/07 11:39:17;;;;;;;;;;;18.90;93.10;;;;;;6245855;23;20313;-67
2022/04/07 11:41:43;;;;;;;;;;;18.90;93.10;;;;;;6245763;23;19908;-66
2022/04/07 11:44:10;;;;;;;;;;;18.70;92.50;;;;;;6245639;23;19943;-67
2022/04/07 11:46:36;;;;;;;;;;;18.90;93.20;;;;;;6245617;23;19981;-68
2022/04/07 11:49:04;;;;;;;;;;;18.90;94.20;;;;;;6245456;23;19903;-68
2022/04/07 11:51:32;;;;;;;;;;;19.10;93.90;;;;;;6245440;23;19907;-68
2022/04/07 11:53:58;;;;;;;;;;;19.20;93.10;;;;;;6246583;23;19958;-67
2022/04/07 11:56:27;;;;;;;;;;;19.00;93.10;;;;;;6245463;23;19911;-68
2022/04/07 11:58:53;;;;;;;;;;;19.00;93.60;;;;;;6245513;23;19991;-67
2022/04/07 12:01:19;;;;;;;;;;;18.90;93.90;;;;;;6245879;23;20268;-69
2022/04/07 12:03:45;;;;;;;;;;;18.70;94.50;;;;;;6245705;23;20007;-67
2022/04/07 12:06:11;;;;;;;;;;;18.90;93.70;;;;;;6245898;23;19994;-68
2022/04/07 12:08:36;;;;;;;;;;;19.10;93.40;;;;;;6246334;23;19927;-68
2022/04/07 12:11:04;;;;;;;;;;;19.10;93.80;;;;;;6218487;23;20002;-68
2022/04/07 12:13:30;;;;;;;;;;;19.30;93.50;;;;;;6245230;23;19986;-68
2022/04/07 12:15:56;;;;;;;;;;;19.40;93.40;;;;;;6246072;23;19931;-68
2022/04/07 12:18:26;;;;;;;;;;;19.50;93.30;;;;;;6246252;23;19911;-67
2022/04/07 12:21:02;;;;;;;;;;;19.70;93.60;;;;;;6246510;23;20213;-68
2022/04/07 12:23:28;;;;;;;;;;;19.50;93.10;;;;;;6246338;23;19904;-67
2022/04/07 12:25:58;;;;;;;;;;;19.40;92.60;;;;;;6246653;23;19922;-67
2022/04/07 12:28:30;;;;;;;;;;;19.40;92.30;;;;;;6246631;23;20088;-67
2022/04/07 12:30:56;;;;;;;;;;;19.30;92.00;;;;;;6247054;23;19903;-68
2022/04/07 12:33:40;;;;;;;;;;;19.50;92.00;;;;;;6246487;23;19910;-67
2022/04/07 12:36:06;;;;;;;;;;;19.50;91.60;;;;;;6219355;23;20184;-68
2022/04/07 12:38:32;;;;;;;;;;;19.60;92.40;;;;;;6246463;23;19910;-67
2022/04/07 12:41:20;;;;;;;;;;;19.80;92.20;;;;;;6246319;23;19904;-68
2022/04/07 12:43:47;;;;;;;;;;;20.00;91.90;;;;;;6247063;23;19982;-68
2022/04/07 12:46:13;;;;;;;;;;;20.10;91.60;;;;;;6245818;23;19930;-68
2022/04/07 12:48:58;;;;;;;;;;;20.20;91.70;;;;;;6245469;23;19914;-68
2022/04/07 12:51:24;;;;;;;;;;;20.30;91.00;;;;;;6246051;23;20221;-68
2022/04/07 12:53:50;;;;;;;;;;;20.50;91.00;;;;;;6218644;23;19903;-68
2022/04/07 12:56:20;;;;;;;;;;;20.30;90.80;;;;;;6245709;23;19907;-68
2022/04/07 12:58:46;;;;;;;;;;;20.40;91.40;;;;;;6245257;23;19904;-68
2022/04/07 13:01:20;;;;;;;;;;;20.50;90.90;;;;;;6245961;23;19986;-67
2022/04/07 13:03:50;;;;;;;;;;;20.70;90.70;;;;;;6245585;23;20254;-67
2022/04/07 13:06:16;;;;;;;;;;;20.90;90.80;;;;;;6245196;23;19912;-67
2022/04/07 13:08:42;;;;;;;;;;;20.90;96.10;;;;;;6245566;23;20030;-67
2022/04/07 13:11:08;;;;;;;;;;;20.80;98.10;;;;;;6244935;23;19943;-67
2022/04/07 13:13:34;;;;;;;;;;;20.80;98.10;;;;;;6246034;23;20344;-66
2022/04/07 13:16:00;;;;;;;;;;;20.80;98.40;;;;;;6247857;23;19904;-68
2022/04/07 13:18:26;;;;;;;;;;;20.60;98.10;;;;;;6248459;23;20256;-69
2022/04/07 13:20:52;;;;;;;;;;;20.70;98.80;;;;;;6248049;23;19908;-68
2022/04/07 13:23:17;;;;;;;;;;;20.20;99.60;;;;;;6221266;23;19910;-68
2022/04/07 13:25:43;;;;;;;;;;;20.40;99.90;;;;;;6248313;23;19907;-68
2022/04/07 13:28:09;;;;;;;;;;;20.60;99.90;;;;;;6248108;23;19962;-68
2022/04/07 13:30:35;;;;;;;;;;;20.80;99.70;;;;;;6247825;23;19911;-68
2022/04/07 13:33:01;;;;;;;;;;;20.90;99.30;;;;;;6248199;23;20301;-68
2022/04/07 13:35:26;;;;;;;;;;;20.40;99.00;;;;;;6220508;23;19980;-67
2022/04/07 13:37:52;;;;;;;;;;;20.50;98.60;;;;;;6247221;23;20375;-68
2022/04/07 13:40:18;;;;;;;;;;;20.40;98.50;;;;;;6248168;23;19911;-69
2022/04/07 13:42:44;;;;;;;;;;;19.70;99.50;;;;;;6220605;23;20236;-68
2022/04/07 13:45:10;;;;;;;;;;;19.50;99.90;;;;;;6248273;23;19903;-66
2022/04/07 13:47:37;;;;;;;;;;;19.00;99.90;;;;;;6247436;23;19916;-67
2022/04/07 13:50:03;;;;;;;;;;;18.90;99.90;;;;;;6246645;23;20367;-66
2022/04/07 13:52:29;;;;;;;;;;;18.80;99.90;;;;;;6246619;23;19904;-65
2022/04/07 13:54:54;;;;;;;;;;;18.70;99.90;;;;;;6246751;23;19904;-68
2022/04/07 13:57:20;;;;;;;;;;;18.80;99.90;;;;;;6245315;23;19903;-66
2022/04/07 13:59:46;;;;;;;;;;;18.90;99.90;;;;;;6244974;23;19907;-66
2022/04/07 14:02:12;;;;;;;;;;;19.00;99.90;;;;;;6245845;23;20327;-68
2022/04/07 14:04:38;;;;;;;;;;;19.30;99.90;;;;;;6219766;23;19911;-67
2022/04/07 14:07:04;;;;;;;;;;;19.40;99.90;;;;;;6246644;23;19915;-67
2022/04/07 14:09:30;;;;;;;;;;;19.50;99.90;;;;;;6219077;23;19907;-68
2022/04/07 14:11:56;;;;;;;;;;;19.60;99.90;;;;;;6220467;23;19958;-67
2022/04/07 14:14:22;;;;;;;;;;;19.70;99.90;;;;;;6246547;23;20278;-68